Time;durP1;ratioP1;P1;durP2;ratioP2;P2;SDS_P1;SDS_P2;PMS_P1;PMS_P2;Temp;Humidity;BMP_temperature;BMP_pressure;BME280_temperature;BME280_humidity;BME280_pressure;Samples;Min_cycle;Max_cycle;Signal;HPM_P1;HPM_P2
2023/06/17 00:00:53;;;;;;;4.97;3.00;;;;;;;22.79;20.05;101205.41;5059953;28;20047;-76
2023/06/17 00:03:21;;;;;;;4.47;3.30;;;;;;;22.75;19.97;101204.13;5053996;28;20090;-76
2023/06/17 00:05:49;;;;;;;5.53;3.22;;;;;;;22.72;19.74;101201.72;5074381;28;20053;-76
2023/06/17 00:08:17;;;;;;;4.63;3.25;;;;;;;22.68;19.99;101200.41;5056183;28;20041;-77
2023/06/17 00:10:45;;;;;;;4.47;3.20;;;;;;;22.66;20.07;101202.56;5079020;28;20116;-77
2023/06/17 00:13:19;;;;;;;4.22;2.85;;;;;;;22.62;20.13;101199.31;5078386;28;20060;-78
2023/06/17 00:15:50;;;;;;;4.25;2.83;;;;;;;22.59;20.30;101196.91;5071327;28;20705;-77
2023/06/17 00:18:22;;;;;;;4.10;3.10;;;;;;;22.57;20.17;101196.28;5058631;28;20155;-79
2023/06/17 00:20:52;;;;;;;4.60;3.30;;;;;;;22.51;20.28;101194.25;5059541;28;20434;-78
2023/06/17 00:23:21;;;;;;;4.18;3.05;;;;;;;22.49;20.06;101190.84;5082041;28;20063;-79
2023/06/17 00:25:49;;;;;;;4.13;3.00;;;;;;;22.47;19.93;101184.59;5064401;28;20335;-77
2023/06/17 00:28:17;;;;;;;4.70;3.05;;;;;;;22.42;20.07;101183.50;5080763;28;20052;-78
2023/06/17 00:30:46;;;;;;;4.88;3.40;;;;;;;22.40;20.18;101186.47;5079110;28;20479;-75
2023/06/17 00:33:14;;;;;;;3.88;3.00;;;;;;;22.38;19.99;101184.94;5071018;28;20052;-77
2023/06/17 00:35:43;;;;;;;3.83;2.90;;;;;;;22.36;20.35;101181.50;5087702;28;20052;-79
2023/06/17 00:38:12;;;;;;;4.80;3.00;;;;;;;22.31;20.65;101182.13;5080759;28;20048;-78
2023/06/17 00:40:39;;;;;;;4.40;3.20;;;;;;;22.26;20.88;101177.13;5064617;28;20072;-77
2023/06/17 00:43:07;;;;;;;5.13;3.25;;;;;;;22.23;20.59;101168.34;5077316;28;20131;-76
2023/06/17 00:45:38;;;;;;;5.43;3.58;;;;;;;22.19;20.69;101173.44;5093874;28;20057;-79
2023/06/17 00:48:09;;;;;;;5.28;2.90;;;;;;;22.15;21.00;101182.44;5080716;28;20514;-75
2023/06/17 00:50:39;;;;;;;4.60;3.13;;;;;;;22.11;20.93;101176.38;5060964;28;20041;-79
2023/06/17 00:53:08;;;;;;;4.70;3.08;;;;;;;22.11;21.20;101175.53;5063441;28;20048;-76
2023/06/17 00:55:36;;;;;;;4.38;3.08;;;;;;;22.06;20.77;101173.34;5077586;28;20048;-77
2023/06/17 00:58:06;;;;;;;5.05;3.42;;;;;;;22.03;21.33;101170.09;5084138;28;20036;-77
2023/06/17 01:00:34;;;;;;;4.93;3.80;;;;;;;21.99;20.99;101169.66;5061702;28;20044;-79
2023/06/17 01:03:02;;;;;;;4.68;3.60;;;;;;;21.97;20.98;101174.56;5093037;28;20040;-75
2023/06/17 01:05:32;;;;;;;4.70;3.45;;;;;;;21.94;21.50;101174.09;5093120;28;20080;-77
2023/06/17 01:08:14;;;;;;;4.97;3.33;;;;;;;21.95;21.52;101173.03;5072649;28;20459;-77
2023/06/17 01:10:49;;;;;;;4.40;3.33;;;;;;;21.87;21.66;101171.22;5066492;28;20044;-77
2023/06/17 01:13:18;;;;;;;4.07;3.08;;;;;;;21.83;21.33;101165.22;5082645;28;20051;-77
2023/06/17 01:15:48;;;;;;;6.20;3.55;;;;;;;21.81;21.36;101169.25;5065384;28;20143;-79
2023/06/17 01:18:19;;;;;;;4.72;3.38;;;;;;;21.78;21.49;101166.84;5100087;28;20055;-76
2023/06/17 01:20:53;;;;;;;4.60;3.37;;;;;;;21.74;21.73;101157.19;5100004;28;20592;-78
2023/06/17 01:23:31;;;;;;;4.72;3.53;;;;;;;21.72;21.78;101153.75;5064112;28;20078;-75
2023/06/17 01:26:02;;;;;;;5.28;3.38;;;;;;;21.67;21.79;101159.06;5088589;28;20051;-77
2023/06/17 01:28:30;;;;;;;5.10;3.25;;;;;;;21.63;22.06;101160.50;5084099;28;20066;-78
2023/06/17 01:30:59;;;;;;;5.07;3.63;;;;;;;21.59;22.06;101157.28;5079503;28;20071;-79
2023/06/17 01:33:27;;;;;;;4.30;3.40;;;;;;;21.57;21.95;101161.31;5086069;28;20602;-77
2023/06/17 01:36:13;;;;;;;4.72;3.45;;;;;;;21.55;22.14;101161.50;5082556;28;20058;-77
2023/06/17 01:38:45;;;;;;;5.88;3.50;;;;;;;21.52;22.14;101161.88;5099900;28;20078;-75
2023/06/17 01:41:18;;;;;;;5.00;3.13;;;;;;;21.47;22.14;101158.84;5076402;28;20040;-77
2023/06/17 01:43:49;;;;;;;5.03;3.72;;;;;;;21.44;22.67;101164.81;5066354;28;20551;-77
2023/06/17 01:46:17;;;;;;;5.35;3.70;;;;;;;21.40;22.26;101157.94;5064577;28;20536;-78
2023/06/17 01:48:46;;;;;;;5.38;3.50;;;;;;;21.36;22.56;101165.81;5081904;28;20070;-77
2023/06/17 01:51:14;;;;;;;5.82;3.85;;;;;;;21.33;22.77;101160.66;5061302;28;20109;-79
2023/06/17 01:53:42;;;;;;;5.03;3.80;;;;;;;21.29;22.53;101170.44;5057568;28;20045;-78
2023/06/17 01:56:10;;;;;;;5.22;4.13;;;;;;;21.26;23.04;101165.28;5083275;28;20046;-77
2023/06/17 01:58:39;;;;;;;6.97;4.57;;;;;;;21.23;22.95;101165.63;5063305;28;20036;-78
2023/06/17 02:01:07;;;;;;;6.00;4.43;;;;;;;21.19;22.77;101171.81;5079304;28;20049;-76
2023/06/17 02:03:35;;;;;;;5.75;4.20;;;;;;;21.13;22.99;101163.16;5059674;28;20364;-78
2023/06/17 02:06:03;;;;;;;5.60;4.22;;;;;;;21.09;22.97;101164.63;5077580;28;20049;-78
2023/06/17 02:08:34;;;;;;;5.32;3.85;;;;;;;21.06;23.29;101167.78;5076769;28;20028;-77
2023/06/17 02:11:02;;;;;;;5.25;3.88;;;;;;;21.02;23.05;101169.25;5084211;28;20033;-76
2023/06/17 02:13:30;;;;;;;4.80;3.80;;;;;;;20.99;23.49;101166.88;5095719;28;20491;-78
2023/06/17 02:16:01;;;;;;;5.03;3.95;;;;;;;20.97;23.71;101157.84;5067161;28;20503;-75
2023/06/17 02:18:32;;;;;;;6.10;3.85;;;;;;;20.90;23.32;101159.69;5064305;28;20407;-78
2023/06/17 02:21:01;;;;;;;5.57;3.65;;;;;;;20.90;23.95;101156.03;5067838;28;20070;-77
2023/06/17 02:23:29;;;;;;;4.60;3.72;;;;;;;20.86;23.50;101149.16;5106040;28;20040;-78
2023/06/17 02:25:57;;;;;;;5.63;3.88;;;;;;;20.83;23.80;101157.88;5070495;28;20070;-77
2023/06/17 02:28:25;;;;;;;5.55;4.03;;;;;;;20.79;24.03;101160.16;5068318;28;20119;-75
2023/06/17 02:30:53;;;;;;;6.50;4.10;;;;;;;20.78;23.94;101161.22;5080847;28;20063;-78
2023/06/17 02:33:23;;;;;;;4.70;3.50;;;;;;;20.75;23.95;101164.41;5080084;28;20037;-77
2023/06/17 02:35:51;;;;;;;5.55;4.13;;;;;;;20.70;23.68;101164.13;5062368;28;20063;-77
2023/06/17 02:38:19;;;;;;;7.00;4.07;;;;;;;20.67;24.24;101158.97;5095289;28;20036;-78
2023/06/17 02:40:47;;;;;;;4.40;3.50;;;;;;;20.65;24.12;101166.63;5079343;28;20292;-78
2023/06/17 02:43:15;;;;;;;5.07;3.40;;;;;;;20.61;24.13;101168.91;5064288;28;20039;-77
2023/06/17 02:45:43;;;;;;;5.70;3.88;;;;;;;20.57;23.95;101166.69;5062138;28;20052;-75
2023/06/17 02:48:12;;;;;;;5.63;3.80;;;;;;;20.53;24.47;101166.19;5068610;28;20032;-79
2023/06/17 02:50:42;;;;;;;4.90;3.65;;;;;;;20.52;24.53;101166.41;5104729;28;20557;-77
2023/06/17 02:53:10;;;;;;;5.72;3.97;;;;;;;20.48;24.59;101160.38;5097112;28;20036;-78
2023/06/17 02:55:39;;;;;;;5.45;3.78;;;;;;;20.45;24.24;101162.69;5096437;28;20044;-77
2023/06/17 02:58:15;;;;;;;4.63;3.40;;;;;;;20.42;24.37;101165.84;5063330;28;20071;-76
2023/06/17 03:00:46;;;;;;;5.45;3.92;;;;;;;20.39;24.91;101161.50;5060668;28;20108;-78
2023/06/17 03:03:14;;;;;;;6.30;3.95;;;;;;;20.37;24.41;101163.63;5062629;28;20036;-78
2023/06/17 03:05:44;;;;;;;5.03;3.55;;;;;;;20.36;24.96;101162.78;5057764;28;20036;-77
2023/06/17 03:08:15;;;;;;;4.68;3.58;;;;;;;20.32;24.95;101163.34;5055482;28;20555;-78
2023/06/17 03:10:43;;;;;;;5.10;3.72;;;;;;;20.28;24.74;101157.28;5092566;28;20490;-76
2023/06/17 03:13:13;;;;;;;5.45;3.63;;;;;;;20.26;25.20;101155.78;5088496;28;20080;-77
2023/06/17 03:15:45;;;;;;;6.72;3.95;;;;;;;20.23;25.03;101153.34;5054713;28;20120;-77
2023/06/17 03:18:13;;;;;;;4.97;3.97;;;;;;;20.20;25.09;101154.59;5086722;28;20566;-79
2023/06/17 03:20:43;;;;;;;7.25;4.10;;;;;;;20.19;25.06;101157.59;5055940;28;20125;-78
2023/06/17 03:23:11;;;;;;;7.03;4.10;;;;;;;20.13;25.14;101153.63;5059477;28;20492;-78
2023/06/17 03:25:39;;;;;;;5.90;3.95;;;;;;;20.10;25.58;101156.81;5056770;28;20056;-77
2023/06/17 03:28:07;;;;;;;5.90;4.15;;;;;;;20.08;25.68;101155.28;5056210;28;20070;-78
2023/06/17 03:30:35;;;;;;;6.13;4.50;;;;;;;20.01;25.42;101150.47;5052996;28;20040;-77
2023/06/17 03:33:04;;;;;;;5.72;4.38;;;;;;;19.99;25.39;101148.94;5054679;28;20055;-78
2023/06/17 03:35:33;;;;;;;4.93;4.00;;;;;;;19.95;25.78;101151.22;5082482;28;20575;-77
2023/06/17 03:38:03;;;;;;;6.63;4.25;;;;;;;19.93;25.66;101145.00;5058124;28;20499;-78
2023/06/17 03:40:31;;;;;;;5.63;4.30;;;;;;;19.90;25.96;101144.47;5064999;23;20053;-59
2023/06/17 03:43:01;;;;;;;6.00;4.32;;;;;;;19.85;26.11;101138.63;5041731;28;20053;-60
2023/06/17 03:45:30;;;;;;;6.20;4.50;;;;;;;19.84;26.29;101148.00;5039896;28;20045;-61
2023/06/17 03:48:00;;;;;;;6.90;4.28;;;;;;;19.79;25.95;101143.00;5045318;28;20036;-59
2023/06/17 03:50:29;;;;;;;6.35;3.97;;;;;;;19.77;26.30;101144.25;5061653;28;20048;-59
2023/06/17 03:52:57;;;;;;;5.75;4.07;;;;;;;19.76;25.92;101148.09;5061727;28;20079;-60
2023/06/17 03:55:26;;;;;;;5.75;3.97;;;;;;;19.75;26.61;101155.56;5045201;28;20491;-58
2023/06/17 03:57:56;;;;;;;7.88;4.40;;;;;;;19.70;26.70;101152.50;5046262;28;20487;-59
2023/06/17 04:00:27;;;;;;;5.95;3.90;;;;;;;19.68;26.76;101146.25;5042810;28;20058;-61
2023/06/17 04:02:55;;;;;;;8.35;4.30;;;;;;;19.65;26.35;101138.28;5050188;28;20040;-60
2023/06/17 04:05:32;;;;;;;7.07;4.90;;;;;;;19.63;26.54;101146.78;5045532;28;20055;-57
2023/06/17 04:08:02;;;;;;;6.90;4.17;;;;;;;19.59;26.84;101148.22;5058430;28;20055;-60
2023/06/17 04:10:32;;;;;;;5.75;4.25;;;;;;;19.61;26.77;101143.38;5065778;28;20286;-61
2023/06/17 04:12:59;;;;;;;6.13;4.20;;;;;;;19.58;26.67;101135.41;5067557;28;20096;-58
2023/06/17 04:15:27;;;;;;;5.63;4.25;;;;;;;19.57;26.55;101143.91;5064318;28;23834;-61
2023/06/17 04:17:56;;;;;;;5.68;4.38;;;;;;;19.55;26.81;101144.09;5049701;28;20041;-62
2023/06/17 04:20:26;;;;;;;6.72;4.25;;;;;;;19.54;26.60;101141.53;5049857;28;20044;-61
2023/06/17 04:22:54;;;;;;;6.32;4.30;;;;;;;19.53;27.07;101142.56;5050372;28;20040;-59
2023/06/17 04:25:22;;;;;;;5.45;4.40;;;;;;;19.53;26.80;101149.00;5057392;28;20049;-58
2023/06/17 04:27:56;;;;;;;7.03;4.72;;;;;;;19.52;27.13;101140.84;5049359;28;20037;-59
2023/06/17 04:30:26;;;;;;;6.53;4.97;;;;;;;19.49;27.14;101146.75;5043798;28;20435;-59
2023/06/17 04:32:58;;;;;;;7.88;4.95;;;;;;;19.48;26.77;101148.66;5050355;28;20087;-59
2023/06/17 04:35:26;;;;;;;5.75;4.50;;;;;;;19.49;27.15;101150.41;5039331;28;20049;-60
2023/06/17 04:37:55;;;;;;;7.13;4.78;;;;;;;19.48;27.03;101143.09;5049167;28;20072;-60
2023/06/17 04:40:24;;;;;;;5.60;4.38;;;;;;;19.50;27.03;101145.72;5063639;28;20056;-60
2023/06/17 04:42:53;;;;;;;6.10;4.05;;;;;;;19.49;27.24;101146.75;5067233;28;20041;-60
2023/06/17 04:45:24;;;;;;;6.85;4.65;;;;;;;19.51;27.06;101141.88;5045593;28;20283;-60
2023/06/17 04:47:57;;;;;;;7.60;4.72;;;;;;;19.48;27.23;101140.34;5049456;28;20129;-60
2023/06/17 04:50:25;;;;;;;7.68;4.93;;;;;;;19.50;27.02;101131.81;5049495;28;20143;-61
2023/06/17 04:52:54;;;;;;;7.20;4.70;;;;;;;19.48;26.98;101132.00;5045384;28;20070;-61
2023/06/17 04:55:25;;;;;;;6.63;4.45;;;;;;;19.50;27.38;101142.94;5044240;28;20182;-58
2023/06/17 04:57:53;;;;;;;6.45;4.30;;;;;;;19.50;27.44;101138.25;5067367;28;20036;-59
2023/06/17 05:00:43;;;;;;;5.60;4.15;;;;;;;19.52;27.23;101138.06;5062855;28;20055;-61
2023/06/17 05:03:15;;;;;;;6.45;4.53;;;;;;;19.52;27.64;101140.84;5047407;28;20499;-61
2023/06/17 05:05:43;;;;;;;5.13;3.92;;;;;;;19.53;27.56;101137.00;5042933;28;20049;-59
2023/06/17 05:08:11;;;;;;;6.10;4.68;;;;;;;19.57;27.61;101142.00;5045572;28;20036;-58
2023/06/17 05:10:39;;;;;;;6.45;4.72;;;;;;;19.66;27.66;101134.47;5049630;28;20040;-60
2023/06/17 05:13:07;;;;;;;7.00;4.75;;;;;;;19.78;27.53;101137.66;5066204;28;20044;-59
2023/06/17 05:15:35;;;;;;;9.20;5.35;;;;;;;19.92;27.57;101134.94;5056766;28;20491;-59
2023/06/17 05:18:05;;;;;;;6.13;4.55;;;;;;;20.13;27.29;101147.22;5046719;28;20040;-60
2023/06/17 05:20:33;;;;;;;6.63;4.82;;;;;;;20.28;27.05;101154.50;5041917;28;20048;-60
2023/06/17 05:23:01;;;;;;;7.40;4.93;;;;;;;20.51;27.38;101156.34;5050253;28;20458;-59
2023/06/17 05:25:29;;;;;;;6.50;4.72;;;;;;;20.71;26.69;101144.47;5046802;28;20064;-57
2023/06/17 05:27:57;;;;;;;6.32;4.72;;;;;;;20.93;26.92;101150.97;5065939;28;20500;-59
2023/06/17 05:30:28;;;;;;;6.00;4.80;;;;;;;21.17;26.27;101154.44;5042696;28;20156;-58
2023/06/17 05:32:58;;;;;;;6.75;5.00;;;;;;;21.39;26.36;101150.63;5044930;28;20071;-59
2023/06/17 05:35:28;;;;;;;6.63;4.88;;;;;;;21.63;26.32;101154.94;5042612;28;20045;-59
2023/06/17 05:37:57;;;;;;;7.45;5.00;;;;;;;21.81;25.86;101146.97;5048641;28;20094;-59
2023/06/17 05:40:25;;;;;;;6.05;4.47;;;;;;;22.02;25.97;101148.88;5060799;28;20056;-59
2023/06/17 05:42:53;;;;;;;5.50;4.47;;;;;;;22.19;25.76;101148.34;5046475;28;20044;-57
2023/06/17 05:45:21;;;;;;;6.70;4.70;;;;;;;22.38;25.24;101151.50;5041882;28;20048;-59
2023/06/17 05:47:50;;;;;;;5.47;4.25;;;;;;;22.55;24.93;101152.91;5046327;28;20067;-59
2023/06/17 05:50:18;;;;;;;6.22;4.60;;;;;;;22.70;24.84;101152.75;5049024;28;20422;-58
2023/06/17 05:52:48;;;;;;;5.82;4.50;;;;;;;22.83;24.35;101150.06;5062609;28;20080;-58
2023/06/17 05:55:16;;;;;;;7.38;4.63;;;;;;;22.95;24.37;101159.53;5064852;28;20193;-59
2023/06/17 05:57:44;;;;;;;5.82;4.32;;;;;;;23.05;24.23;101160.00;5049202;28;20143;-57
2023/06/17 06:00:14;;;;;;;6.00;4.38;;;;;;;23.15;24.03;101159.63;5047497;28;20040;-58
2023/06/17 06:02:43;;;;;;;6.15;4.30;;;;;;;23.22;24.04;101155.81;5047821;28;20047;-57
2023/06/17 06:05:12;;;;;;;6.85;4.57;;;;;;;23.30;24.14;101172.38;5044742;28;20041;-58
2023/06/17 06:07:41;;;;;;;6.47;4.15;;;;;;;23.39;23.90;101170.25;5066140;28;20456;-58
2023/06/17 06:10:11;;;;;;;5.68;4.47;;;;;;;23.49;23.54;101164.25;5048054;28;20041;-58
2023/06/17 06:12:43;;;;;;;5.45;4.68;;;;;;;23.52;23.59;101169.38;5050977;28;20044;-59
2023/06/17 06:15:11;;;;;;;7.13;4.22;;;;;;;23.60;23.53;101166.41;5050038;28;20058;-59
2023/06/17 06:17:39;;;;;;;6.03;4.07;;;;;;;23.66;23.28;101165.56;5047923;28;20500;-59
2023/06/17 06:20:08;;;;;;;6.78;4.50;;;;;;;23.72;23.26;101170.28;5048062;28;20519;-58
2023/06/17 06:22:35;;;;;;;6.47;4.18;;;;;;;23.77;22.98;101165.81;5060157;28;20530;-59
2023/06/17 06:25:05;;;;;;;6.18;4.10;;;;;;;23.84;23.05;101165.81;5054736;28;20507;-59
2023/06/17 06:27:35;;;;;;;5.78;4.05;;;;;;;23.92;23.17;101164.72;5043487;28;20180;-59
2023/06/17 06:30:06;;;;;;;5.93;4.32;;;;;;;23.98;22.98;101161.09;5043798;28;20305;-58
2023/06/17 06:32:38;;;;;;;5.97;4.28;;;;;;;24.02;22.79;101166.03;5060890;28;20396;-59
2023/06/17 06:35:07;;;;;;;5.85;4.45;;;;;;;24.11;22.93;101161.06;5060182;28;20060;-59
2023/06/17 06:37:35;;;;;;;7.95;4.60;;;;;;;24.17;22.66;101164.91;5059795;28;20105;-57
2023/06/17 06:40:05;;;;;;;6.10;3.97;;;;;;;24.24;22.69;101161.03;5060095;28;20045;-59
2023/06/17 06:42:37;;;;;;;6.97;4.88;;;;;;;24.30;22.57;101165.78;5044092;28;20044;-59
2023/06/17 06:45:19;;;;;;;5.40;4.72;;;;;;;24.35;22.82;101167.91;5044306;28;20044;-58
2023/06/17 06:47:47;;;;;;;5.93;4.45;;;;;;;24.42;22.88;101168.78;5061917;28;20442;-58
2023/06/17 06:50:15;;;;;;;6.38;4.50;;;;;;;24.47;22.63;101171.81;5045176;28;20052;-58
2023/06/17 06:52:46;;;;;;;6.60;4.57;;;;;;;24.54;22.63;101175.44;5043461;28;20055;-59
2023/06/17 06:55:14;;;;;;;6.15;4.47;;;;;;;24.61;22.68;101179.09;5049209;28;20054;-59
2023/06/17 06:57:44;;;;;;;5.65;4.18;;;;;;;24.69;22.48;101178.84;5046474;28;20102;-58
2023/06/17 07:00:14;;;;;;;6.40;4.93;;;;;;;24.74;22.43;101186.56;5058709;28;20603;-59
2023/06/17 07:02:43;;;;;;;5.72;4.30;;;;;;;24.80;22.61;101182.91;5040768;28;20590;-56
2023/06/17 07:05:11;;;;;;;5.32;3.92;;;;;;;24.86;22.24;101176.44;5054037;28;20040;-57
2023/06/17 07:07:46;;;;;;;5.60;4.28;;;;;;;24.92;22.14;101174.66;5042833;28;20098;-55
2023/06/17 07:10:14;;;;;;;6.82;4.43;;;;;;;24.99;22.17;101181.13;5049135;28;20045;-58
2023/06/17 07:12:43;;;;;;;5.88;4.35;;;;;;;25.06;22.10;101180.00;5041236;28;20045;-58
2023/06/17 07:15:12;;;;;;;7.28;4.40;;;;;;;25.11;22.07;101182.16;5045054;28;20181;-58
2023/06/17 07:17:41;;;;;;;6.43;4.20;;;;;;;25.16;21.99;101182.34;5045786;28;20418;-58
2023/06/17 07:20:09;;;;;;;6.53;4.55;;;;;;;25.22;21.90;101184.28;5062756;28;20105;-59
2023/06/17 07:22:39;;;;;;;5.35;4.38;;;;;;;25.28;21.64;101183.38;4996890;28;20415;-58
2023/06/17 07:25:07;;;;;;;6.78;4.40;;;;;;;25.35;21.55;101186.13;5063646;28;20043;-58
2023/06/17 07:27:35;;;;;;;6.80;3.65;;;;;;;25.39;21.62;101185.44;5062015;28;20123;-58
2023/06/17 07:30:06;;;;;;;6.68;4.20;;;;;;;25.47;21.62;101185.19;5065463;28;20050;-61
2023/06/17 07:32:34;;;;;;;5.63;4.00;;;;;;;25.50;21.98;101181.94;5033905;28;20135;-61
2023/06/17 07:35:03;;;;;;;5.03;3.88;;;;;;;25.59;21.34;101176.97;5045463;28;20055;-61
2023/06/17 07:37:31;;;;;;;5.57;3.92;;;;;;;25.67;21.25;101170.22;5045273;28;20185;-61
2023/06/17 07:40:01;;;;;;;6.30;3.92;;;;;;;25.72;21.38;101167.63;5064301;28;20577;-61
2023/06/17 07:42:29;;;;;;;5.10;4.00;;;;;;;25.80;21.21;101176.56;5045047;28;20087;-60
2023/06/17 07:44:56;;;;;;;4.43;3.38;;;;;;;25.88;21.13;101170.72;5059416;28;20054;-60
2023/06/17 07:47:26;;;;;;;5.00;3.50;;;;;;;25.98;21.05;101171.03;5059332;28;20051;-60
2023/06/17 07:49:54;;;;;;;5.07;3.47;;;;;;;26.04;20.88;101174.88;5066736;28;20406;-60
2023/06/17 07:52:22;;;;;;;5.80;3.95;;;;;;;26.12;20.86;101168.16;5061545;28;20495;-60
2023/06/17 07:54:51;;;;;;;6.38;3.83;;;;;;;26.23;20.72;101170.19;5069185;28;20124;-60
2023/06/17 07:57:18;;;;;;;5.60;3.55;;;;;;;26.30;20.43;101177.47;5066504;28;20059;-60
2023/06/17 07:59:46;;;;;;;5.95;4.00;;;;;;;26.39;20.30;101172.41;5063270;28;20032;-61
2023/06/17 08:02:14;;;;;;;4.80;3.72;;;;;;;26.49;20.29;101174.69;5062138;28;20109;-61
2023/06/17 08:04:45;;;;;;;5.05;3.70;;;;;;;26.59;20.25;101172.19;5068224;28;20048;-61
2023/06/17 08:07:13;;;;;;;5.20;3.65;;;;;;;26.65;20.03;101176.91;5061071;28;20385;-61
2023/06/17 08:09:41;;;;;;;4.57;3.67;;;;;;;26.72;19.52;101169.25;5064247;28;20033;-59
2023/06/17 08:12:09;;;;;;;4.80;3.63;;;;;;;26.80;19.10;101166.16;5046425;28;20051;-57
2023/06/17 08:14:37;;;;;;;5.45;3.45;;;;;;;26.87;19.55;101166.09;5065263;28;20105;-57
2023/06/17 08:17:06;;;;;;;4.80;3.58;;;;;;;26.94;19.65;101167.72;5061934;28;20041;-58
2023/06/17 08:19:34;;;;;;;4.70;3.38;;;;;;;27.00;19.52;101161.16;5063029;28;20043;-58
2023/06/17 08:22:04;;;;;;;5.65;3.63;;;;;;;27.08;19.36;101160.81;5062510;28;20048;-59
2023/06/17 08:24:32;;;;;;;5.20;3.40;;;;;;;27.13;19.44;101160.97;5047580;28;20036;-58
2023/06/17 08:27:00;;;;;;;4.88;3.25;;;;;;;27.21;19.51;101156.13;5047069;28;20454;-58
2023/06/17 08:29:28;;;;;;;4.72;3.28;;;;;;;27.28;19.38;101151.31;5060248;28;20127;-58
2023/06/17 08:31:56;;;;;;;4.80;3.42;;;;;;;27.33;19.14;101149.47;5063479;28;20056;-58
2023/06/17 08:34:24;;;;;;;5.15;3.70;;;;;;;27.39;19.07;101145.72;5066415;28;20055;-59
2023/06/17 08:36:53;;;;;;;4.10;3.22;;;;;;;27.47;19.00;101151.00;5064938;28;20068;-58
2023/06/17 08:39:23;;;;;;;4.28;3.50;;;;;;;27.56;18.80;101145.03;5066191;28;20040;-58
2023/06/17 08:41:51;;;;;;;4.78;3.45;;;;;;;27.61;19.06;101146.03;5066109;28;20052;-59
2023/06/17 08:44:22;;;;;;;6.18;3.50;;;;;;;27.68;18.75;101140.31;5066261;28;20041;-59
2023/06/17 08:46:51;;;;;;;4.72;3.67;;;;;;;27.71;18.32;101139.84;5059886;28;20048;-59
2023/06/17 08:49:19;;;;;;;4.47;3.35;;;;;;;27.79;18.22;101133.84;5065139;28;20045;-60
2023/06/17 08:51:50;;;;;;;4.40;3.53;;;;;;;27.86;18.34;101143.06;5066923;28;21435;-56
2023/06/17 08:54:20;;;;;;;5.28;4.03;;;;;;;27.91;18.12;101140.38;5067982;28;20649;-58
2023/06/17 08:56:49;;;;;;;6.20;3.47;;;;;;;27.97;18.12;101133.75;5065222;28;20115;-57
2023/06/17 08:59:17;;;;;;;4.60;3.20;;;;;;;27.99;18.11;101127.91;5065164;28;20047;-58
2023/06/17 09:01:46;;;;;;;4.82;3.40;;;;;;;28.05;18.08;101130.59;5063129;28;20044;-59
2023/06/17 09:04:15;;;;;;;4.90;3.47;;;;;;;28.11;18.14;101125.97;5065984;28;20403;-59
2023/06/17 09:06:44;;;;;;;4.00;2.92;;;;;;;28.14;17.59;101119.81;5062792;28;20503;-59
2023/06/17 09:09:12;;;;;;;4.85;2.90;;;;;;;28.21;17.81;101117.78;5067349;28;20036;-59
2023/06/17 09:11:44;;;;;;;6.07;3.03;;;;;;;28.25;17.50;101124.63;5067238;28;20379;-60
2023/06/17 09:14:13;;;;;;;4.82;3.22;;;;;;;28.31;17.85;101128.41;5045375;28;20143;-60
2023/06/17 09:16:41;;;;;;;5.60;3.10;;;;;;;28.36;17.36;101134.16;5064142;28;20045;-59
2023/06/17 09:19:09;;;;;;;5.30;3.50;;;;;;;28.42;17.44;101127.56;5064042;28;20138;-59
2023/06/17 09:21:37;;;;;;;4.75;2.83;;;;;;;28.45;17.32;101129.88;5066365;28;20135;-60
2023/06/17 09:24:07;;;;;;;4.22;2.97;;;;;;;28.50;17.23;101128.03;5065319;28;20047;-60
2023/06/17 09:26:40;;;;;;;4.72;3.03;;;;;;;28.55;17.57;101133.78;5063044;28;20043;-60
2023/06/17 09:29:10;;;;;;;4.32;3.40;;;;;;;28.59;17.39;101126.56;5066756;28;20368;-58
2023/06/17 09:31:50;;;;;;;4.75;3.45;;;;;;;28.66;16.99;101126.41;5063624;28;20380;-61
2023/06/17 09:34:18;;;;;;;4.40;3.03;;;;;;;28.68;17.47;101131.81;5066878;28;20052;-60
2023/06/17 09:36:47;;;;;;;6.43;3.47;;;;;;;28.72;16.75;101131.06;5065820;28;20511;-60
2023/06/17 09:39:15;;;;;;;4.63;3.28;;;;;;;28.77;16.77;101127.53;5067878;28;20119;-60
2023/06/17 09:41:44;;;;;;;4.47;3.15;;;;;;;28.80;16.77;101130.69;5061623;28;20049;-58
2023/06/17 09:44:13;;;;;;;4.63;3.47;;;;;;;28.84;17.07;101122.63;5067543;28;20067;-59
2023/06/17 09:46:49;;;;;;;4.68;3.00;;;;;;;28.90;16.27;101128.09;5062620;28;20056;-62
2023/06/17 09:49:23;;;;;;;5.00;3.20;;;;;;;28.93;16.47;101124.75;5067392;28;20037;-60
2023/06/17 09:51:52;;;;;;;5.50;3.88;;;;;;;28.96;16.78;101124.28;5064053;28;20099;-61
2023/06/17 09:54:21;;;;;;;5.28;3.40;;;;;;;29.01;16.62;101132.00;5081268;22;20044;-64
2023/06/17 09:56:50;;;;;;;4.03;3.15;;;;;;;29.08;16.30;101124.25;5069036;28;20051;-62
2023/06/17 09:59:21;;;;;;;4.10;3.20;;;;;;;29.13;16.29;101126.28;5069532;28;20515;-62
2023/06/17 10:01:52;;;;;;;4.80;3.22;;;;;;;29.17;16.12;101128.38;5069528;28;20052;-60
2023/06/17 10:04:21;;;;;;;5.23;3.27;;;;;;;29.20;16.15;101122.22;5067784;28;20090;-67
2023/06/17 10:06:51;;;;;;;5.63;3.10;;;;;;;29.28;16.35;101132.25;5068034;28;20126;-64
2023/06/17 10:09:19;;;;;;;5.30;3.47;;;;;;;29.30;16.26;101125.28;5068164;28;20041;-63
2023/06/17 10:11:51;;;;;;;5.07;3.58;;;;;;;29.36;16.08;101124.25;5069178;28;20075;-61
2023/06/17 10:14:24;;;;;;;4.85;3.55;;;;;;;29.41;16.20;101119.84;5069552;28;20040;-62
2023/06/17 10:16:55;;;;;;;5.45;3.55;;;;;;;29.46;16.35;101122.75;5068054;28;20052;-64
2023/06/17 10:19:27;;;;;;;5.28;3.60;;;;;;;29.50;16.44;101121.13;5070163;28;20040;-63
2023/06/17 10:21:57;;;;;;;4.70;3.42;;;;;;;29.51;15.78;101115.22;5068800;28;20522;-65
2023/06/17 10:24:27;;;;;;;4.80;3.42;;;;;;;29.58;16.00;101124.41;5083555;28;20570;-64
2023/06/17 10:26:55;;;;;;;5.10;3.67;;;;;;;29.60;15.91;101110.00;5077828;28;20499;-70
2023/06/17 10:29:23;;;;;;;5.50;3.42;;;;;;;29.63;15.79;101116.00;5068987;28;20067;-74
2023/06/17 10:31:51;;;;;;;5.90;3.63;;;;;;;29.67;15.65;101111.56;5067574;28;20045;-72
2023/06/17 10:34:23;;;;;;;6.07;3.40;;;;;;;29.77;15.96;101102.44;5068886;28;20055;-72
2023/06/17 10:36:51;;;;;;;;;;;;;;;29.49;16.54;101127.88;5068231;28;20105;-71
2023/06/17 10:39:19;;;;;;;4.57;3.20;;;;;;;29.82;15.69;101116.66;5067899;28;19926;-72
2023/06/17 10:41:59;;;;;;;5.57;3.40;;;;;;;29.96;15.33;101115.19;5065868;28;20044;-72
2023/06/17 10:44:43;;;;;;;6.85;3.65;;;;;;;30.02;15.40;101107.66;5068649;28;20238;-72
2023/06/17 10:47:20;;;;;;;4.43;3.10;;;;;;;30.13;15.26;101108.69;5066361;28;20059;-72
2023/06/17 10:49:53;;;;;;;4.55;3.28;;;;;;;30.22;14.67;101107.13;5069426;28;20036;-72
2023/06/17 10:52:21;;;;;;;4.80;3.47;;;;;;;30.26;15.21;101109.19;5068005;28;20048;-71
2023/06/17 10:54:54;;;;;;;4.32;3.33;;;;;;;30.38;14.83;101109.09;5067680;28;20153;-72
2023/06/17 10:57:32;;;;;;;5.10;3.50;;;;;;;30.47;14.66;101110.34;5068220;28;20466;-71
2023/06/17 11:00:06;;;;;;;6.88;3.80;;;;;;;30.53;15.50;101112.13;5066881;28;20067;-72
2023/06/17 11:02:34;;;;;;;5.07;3.35;;;;;;;30.60;14.88;101104.31;5068259;28;20045;-71
2023/06/17 11:05:04;;;;;;;5.13;3.60;;;;;;;30.71;14.79;101111.84;5067055;28;20454;-72
2023/06/17 11:07:32;;;;;;;5.00;3.78;;;;;;;30.76;14.98;101100.59;5067356;28;20102;-72
2023/06/17 11:10:02;;;;;;;4.85;3.47;;;;;;;30.84;14.42;101100.13;5067965;28;20040;-71
2023/06/17 11:12:30;;;;;;;4.60;3.63;;;;;;;30.91;14.34;101094.28;5067645;28;20053;-71
2023/06/17 11:14:59;;;;;;;5.45;3.60;;;;;;;30.96;14.30;101088.72;5068469;28;20126;-74
2023/06/17 11:17:28;;;;;;;4.10;3.30;;;;;;;31.03;15.06;101088.50;5067527;28;20499;-72
2023/06/17 11:19:56;;;;;;;4.38;3.40;;;;;;;31.07;14.75;101082.06;5068122;28;20052;-73
2023/06/17 11:22:25;;;;;;;4.50;3.15;;;;;;;31.14;14.83;101084.66;5067942;28;20044;-73
2023/06/17 11:24:55;;;;;;;4.63;3.30;;;;;;;31.16;15.01;101080.44;5067729;28;20048;-76
2023/06/17 11:27:23;;;;;;;4.50;3.50;;;;;;;31.19;15.31;101076.25;5067989;28;20045;-76
2023/06/17 11:29:52;;;;;;;4.07;3.08;;;;;;;31.23;14.32;101074.63;5068853;28;20036;-74
2023/06/17 11:32:21;;;;;;;4.68;3.15;;;;;;;31.27;14.76;101070.13;5067349;28;20118;-76
2023/06/17 11:34:51;;;;;;;4.15;3.28;;;;;;;31.28;13.84;101071.84;5068396;28;20051;-75